<?xml version="1.0" encoding="UTF-8" standalone="no" ?>
<gpx xmlns="http://www.topografix.com/GPX/1/1" xmlns:xsi="http://www.w3.org/2001/XMLSchema-instance" xsi:schemaLocation="http://www.topografix.com/GPX/1/1 http://www.topografix.com/GPX/1/1/gpx.xsd" version="1.1" creator="VisuGPX - https://www.visugpx.com">
  <metadata>
    <name>Tour de France 2019</name>
    <desc><![CDATA[4272km en 2 mois en tandem avec notre petit chien dans le panier avant]]></desc>
  </metadata>
  <trk>
    <name><![CDATA[Tracé 20190918-144508]]></name>
    <trkseg>
      <trkpt lat="50.60828" lon="3.25373">
        <ele>31.575</ele>
        <time>2019-09-18T12:46:32.000Z</time>
      </trkpt>
      <trkpt lat="50.60823" lon="3.25318">
        <ele>34.327</ele>
        <time>2019-09-18T12:49:23.000Z</time>
      </trkpt>
      <trkpt lat="50.60719" lon="3.25376">
        <ele>40.035</ele>
        <time>2019-09-18T12:49:56.000Z</time>
      </trkpt>
      <trkpt lat="50.60659" lon="3.25567">
        <ele>38.469</ele>
        <time>2019-09-18T12:50:26.000Z</time>
      </trkpt>
      <trkpt lat="50.60663" lon="3.25767">
        <ele>38.842</ele>
        <time>2019-09-18T12:50:56.000Z</time>
      </trkpt>
      <trkpt lat="50.60684" lon="3.25977">
        <ele>36.549</ele>
        <time>2019-09-18T12:51:26.000Z</time>
      </trkpt>
      <trkpt lat="50.60713" lon="3.26228">
        <ele>34.794</ele>
        <time>2019-09-18T12:51:56.000Z</time>
      </trkpt>
      <trkpt lat="50.60751" lon="3.265">
        <ele>36.666</ele>
        <time>2019-09-18T12:52:29.000Z</time>
      </trkpt>
      <trkpt lat="50.60787" lon="3.26735">
        <ele>36.249</ele>
        <time>2019-09-18T12:52:59.000Z</time>
      </trkpt>
      <trkpt lat="50.60792" lon="3.26966">
        <ele>36.824</ele>
        <time>2019-09-18T12:53:29.000Z</time>
      </trkpt>
      <trkpt lat="50.60791" lon="3.27195">
        <ele>35.62</ele>
        <time>2019-09-18T12:53:59.000Z</time>
      </trkpt>
      <trkpt lat="50.60816" lon="3.27454">
        <ele>37.856</ele>
        <time>2019-09-18T12:54:32.000Z</time>
      </trkpt>
      <trkpt lat="50.60813" lon="3.27704">
        <ele>35.88</ele>
        <time>2019-09-18T12:55:02.000Z</time>
      </trkpt>
      <trkpt lat="50.60802" lon="3.27935">
        <ele>35.543</ele>
        <time>2019-09-18T12:55:32.000Z</time>
      </trkpt>
      <trkpt lat="50.60806" lon="3.28154">
        <ele>37.616</ele>
        <time>2019-09-18T12:56:02.000Z</time>
      </trkpt>
      <trkpt lat="50.60807" lon="3.28376">
        <ele>37.277</ele>
        <time>2019-09-18T12:56:35.000Z</time>
      </trkpt>
      <trkpt lat="50.60808" lon="3.2858">
        <ele>37.329</ele>
        <time>2019-09-18T12:57:05.000Z</time>
      </trkpt>
      <trkpt lat="50.60809" lon="3.28795">
        <ele>38.689</ele>
        <time>2019-09-18T12:57:35.000Z</time>
      </trkpt>
      <trkpt lat="50.60816" lon="3.29017">
        <ele>38.895</ele>
        <time>2019-09-18T12:58:05.000Z</time>
      </trkpt>
      <trkpt lat="50.60723" lon="3.29082">
        <ele>42.474</ele>
        <time>2019-09-18T12:58:35.000Z</time>
      </trkpt>
      <trkpt lat="50.60715" lon="3.29247">
        <ele>39.977</ele>
        <time>2019-09-18T12:59:08.000Z</time>
      </trkpt>
      <trkpt lat="50.60753" lon="3.29415">
        <ele>43.732</ele>
        <time>2019-09-18T12:59:38.000Z</time>
      </trkpt>
      <trkpt lat="50.60785" lon="3.29635">
        <ele>43.75</ele>
        <time>2019-09-18T13:00:08.000Z</time>
      </trkpt>
      <trkpt lat="50.6081" lon="3.29869">
        <ele>43.921</ele>
        <time>2019-09-18T13:00:38.000Z</time>
      </trkpt>
      <trkpt lat="50.6083" lon="3.30123">
        <ele>45.249</ele>
        <time>2019-09-18T13:01:11.000Z</time>
      </trkpt>
      <trkpt lat="50.60823" lon="3.30349">
        <ele>46.697</ele>
        <time>2019-09-18T13:01:41.000Z</time>
      </trkpt>
      <trkpt lat="50.60808" lon="3.30582">
        <ele>43.329</ele>
        <time>2019-09-18T13:02:11.000Z</time>
      </trkpt>
      <trkpt lat="50.60752" lon="3.30832">
        <ele>44.36</ele>
        <time>2019-09-18T13:02:41.000Z</time>
      </trkpt>
      <trkpt lat="50.60682" lon="3.31146">
        <ele>42.528</ele>
        <time>2019-09-18T13:03:11.000Z</time>
      </trkpt>
      <trkpt lat="50.60613" lon="3.31444">
        <ele>39.252</ele>
        <time>2019-09-18T13:03:44.000Z</time>
      </trkpt>
      <trkpt lat="50.60525" lon="3.31674">
        <ele>36.899</ele>
        <time>2019-09-18T13:04:14.000Z</time>
      </trkpt>
      <trkpt lat="50.60444" lon="3.31905">
        <ele>38.765</ele>
        <time>2019-09-18T13:04:44.000Z</time>
      </trkpt>
      <trkpt lat="50.60412" lon="3.3214">
        <ele>38.802</ele>
        <time>2019-09-18T13:05:14.000Z</time>
      </trkpt>
      <trkpt lat="50.60422" lon="3.32397">
        <ele>41.776</ele>
        <time>2019-09-18T13:05:47.000Z</time>
      </trkpt>
      <trkpt lat="50.60424" lon="3.32605">
        <ele>44.725</ele>
        <time>2019-09-18T13:06:17.000Z</time>
      </trkpt>
      <trkpt lat="50.60429" lon="3.32839">
        <ele>42.918</ele>
        <time>2019-09-18T13:06:47.000Z</time>
      </trkpt>
      <trkpt lat="50.60431" lon="3.33067">
        <ele>42.893</ele>
        <time>2019-09-18T13:07:17.000Z</time>
      </trkpt>
      <trkpt lat="50.60433" lon="3.33289">
        <ele>47.215</ele>
        <time>2019-09-18T13:07:50.000Z</time>
      </trkpt>
      <trkpt lat="50.60414" lon="3.33502">
        <ele>48.217</ele>
        <time>2019-09-18T13:08:20.000Z</time>
      </trkpt>
      <trkpt lat="50.60393" lon="3.33696">
        <ele>47.348</ele>
        <time>2019-09-18T13:08:50.000Z</time>
      </trkpt>
      <trkpt lat="50.60365" lon="3.33913">
        <ele>49.163</ele>
        <time>2019-09-18T13:09:20.000Z</time>
      </trkpt>
      <trkpt lat="50.60349" lon="3.34196">
        <ele>46.447</ele>
        <time>2019-09-18T13:09:50.000Z</time>
      </trkpt>
      <trkpt lat="50.60331" lon="3.34509">
        <ele>42.319</ele>
        <time>2019-09-18T13:10:23.000Z</time>
      </trkpt>
      <trkpt lat="50.60367" lon="3.34722">
        <ele>47.266</ele>
        <time>2019-09-18T13:10:53.000Z</time>
      </trkpt>
      <trkpt lat="50.604" lon="3.3497">
        <ele>46.191</ele>
        <time>2019-09-18T13:11:23.000Z</time>
      </trkpt>
      <trkpt lat="50.60434" lon="3.35253">
        <ele>44.832</ele>
        <time>2019-09-18T13:11:53.000Z</time>
      </trkpt>
      <trkpt lat="50.60431" lon="3.35546">
        <ele>45.87</ele>
        <time>2019-09-18T13:12:26.000Z</time>
      </trkpt>
      <trkpt lat="50.60447" lon="3.35792">
        <ele>43.24</ele>
        <time>2019-09-18T13:12:56.000Z</time>
      </trkpt>
      <trkpt lat="50.60455" lon="3.36045">
        <ele>43.184</ele>
        <time>2019-09-18T13:13:26.000Z</time>
      </trkpt>
      <trkpt lat="50.6048" lon="3.36314">
        <ele>42.429</ele>
        <time>2019-09-18T13:13:56.000Z</time>
      </trkpt>
      <trkpt lat="50.60498" lon="3.36604">
        <ele>41.215</ele>
        <time>2019-09-18T13:14:26.000Z</time>
      </trkpt>
      <trkpt lat="50.60455" lon="3.36906">
        <ele>41.109</ele>
        <time>2019-09-18T13:14:59.000Z</time>
      </trkpt>
      <trkpt lat="50.60475" lon="3.3721">
        <ele>34.568</ele>
        <time>2019-09-18T13:15:29.001Z</time>
      </trkpt>
      <trkpt lat="50.60508" lon="3.37446">
        <ele>40.082</ele>
        <time>2019-09-18T13:15:59.001Z</time>
      </trkpt>
      <trkpt lat="50.6055" lon="3.37695">
        <ele>36.39</ele>
        <time>2019-09-18T13:16:29.001Z</time>
      </trkpt>
      <trkpt lat="50.60619" lon="3.37969">
        <ele>31.795</ele>
        <time>2019-09-18T13:17:02.000Z</time>
      </trkpt>
      <trkpt lat="50.6058" lon="3.38035">
        <ele>33.023</ele>
        <time>2019-09-18T13:18:05.001Z</time>
      </trkpt>
      <trkpt lat="50.60487" lon="3.38139">
        <ele>33.152</ele>
        <time>2019-09-18T13:18:35.001Z</time>
      </trkpt>
      <trkpt lat="50.60411" lon="3.38228">
        <ele>40.932</ele>
        <time>2019-09-18T13:19:05.001Z</time>
      </trkpt>
      <trkpt lat="50.60357" lon="3.38287">
        <ele>37.878</ele>
        <time>2019-09-18T13:20:17.001Z</time>
      </trkpt>
      <trkpt lat="50.60272" lon="3.38374">
        <ele>43.075</ele>
        <time>2019-09-18T13:20:47.001Z</time>
      </trkpt>
      <trkpt lat="50.6019" lon="3.38452">
        <ele>46.524</ele>
        <time>2019-09-18T13:21:17.001Z</time>
      </trkpt>
      <trkpt lat="50.60095" lon="3.38559">
        <ele>51.443</ele>
        <time>2019-09-18T13:21:47.001Z</time>
      </trkpt>
      <trkpt lat="50.60056" lon="3.38684">
        <ele>60.196</ele>
        <time>2019-09-18T13:22:17.001Z</time>
      </trkpt>
      <trkpt lat="50.6001" lon="3.38803">
        <ele>45.266</ele>
        <time>2019-09-18T13:23:02.000Z</time>
      </trkpt>
      <trkpt lat="50.60025" lon="3.38969">
        <ele>42.818</ele>
        <time>2019-09-18T13:23:47.001Z</time>
      </trkpt>
      <trkpt lat="50.60045" lon="3.39285">
        <ele>38.073</ele>
        <time>2019-09-18T13:24:17.001Z</time>
      </trkpt>
      <trkpt lat="50.6004" lon="3.39633">
        <ele>34.647</ele>
        <time>2019-09-18T13:24:47.001Z</time>
      </trkpt>
      <trkpt lat="50.59959" lon="3.39976">
        <ele>23.218</ele>
        <time>2019-09-18T13:25:20.001Z</time>
      </trkpt>
      <trkpt lat="50.59816" lon="3.40129">
        <ele>25.939</ele>
        <time>2019-09-18T13:25:50.001Z</time>
      </trkpt>
      <trkpt lat="50.59708" lon="3.4011">
        <ele>29.66</ele>
        <time>2019-09-18T13:26:20.001Z</time>
      </trkpt>
      <trkpt lat="50.59615" lon="3.40078">
        <ele>36.976</ele>
        <time>2019-09-18T13:26:50.001Z</time>
      </trkpt>
      <trkpt lat="50.5948" lon="3.40024">
        <ele>37.723</ele>
        <time>2019-09-18T13:27:20.001Z</time>
      </trkpt>
      <trkpt lat="50.59225" lon="3.40135">
        <ele>27.145</ele>
        <time>2019-09-18T13:27:53.001Z</time>
      </trkpt>
      <trkpt lat="50.59008" lon="3.40255">
        <ele>23.116</ele>
        <time>2019-09-18T13:28:23.001Z</time>
      </trkpt>
      <trkpt lat="50.58913" lon="3.40309">
        <ele>28.943</ele>
        <time>2019-09-18T13:28:53.001Z</time>
      </trkpt>
      <trkpt lat="50.58835" lon="3.40361">
        <ele>38.922</ele>
        <time>2019-09-18T13:29:23.001Z</time>
      </trkpt>
      <trkpt lat="50.58753" lon="3.40425">
        <ele>43.77</ele>
        <time>2019-09-18T13:29:56.001Z</time>
      </trkpt>
      <trkpt lat="50.58668" lon="3.40508">
        <ele>43.783</ele>
        <time>2019-09-18T13:30:26.001Z</time>
      </trkpt>
      <trkpt lat="50.58579" lon="3.40618">
        <ele>45.679</ele>
        <time>2019-09-18T13:30:56.001Z</time>
      </trkpt>
      <trkpt lat="50.58493" lon="3.40748">
        <ele>44.015</ele>
        <time>2019-09-18T13:31:26.001Z</time>
      </trkpt>
      <trkpt lat="50.58386" lon="3.40895">
        <ele>43.542</ele>
        <time>2019-09-18T13:31:59.001Z</time>
      </trkpt>
      <trkpt lat="50.58268" lon="3.40977">
        <ele>44.814</ele>
        <time>2019-09-18T13:32:29.001Z</time>
      </trkpt>
      <trkpt lat="50.58124" lon="3.41039">
        <ele>44.566</ele>
        <time>2019-09-18T13:32:59.001Z</time>
      </trkpt>
      <trkpt lat="50.5798" lon="3.41095">
        <ele>45.871</ele>
        <time>2019-09-18T13:33:29.001Z</time>
      </trkpt>
      <trkpt lat="50.5783" lon="3.4115">
        <ele>42.94</ele>
        <time>2019-09-18T13:33:59.001Z</time>
      </trkpt>
      <trkpt lat="50.57634" lon="3.41221">
        <ele>40.999</ele>
        <time>2019-09-18T13:34:32.001Z</time>
      </trkpt>
      <trkpt lat="50.57465" lon="3.41342">
        <ele>41.056</ele>
        <time>2019-09-18T13:35:02.000Z</time>
      </trkpt>
      <trkpt lat="50.57324" lon="3.41471">
        <ele>42.142</ele>
        <time>2019-09-18T13:35:32.001Z</time>
      </trkpt>
      <trkpt lat="50.57202" lon="3.41592">
        <ele>44.727</ele>
        <time>2019-09-18T13:36:02.000Z</time>
      </trkpt>
      <trkpt lat="50.57056" lon="3.41765">
        <ele>41.512</ele>
        <time>2019-09-18T13:36:35.001Z</time>
      </trkpt>
      <trkpt lat="50.56976" lon="3.41905">
        <ele>43.18</ele>
        <time>2019-09-18T13:37:05.001Z</time>
      </trkpt>
      <trkpt lat="50.56909" lon="3.4202">
        <ele>50.972</ele>
        <time>2019-09-18T13:37:35.001Z</time>
      </trkpt>
      <trkpt lat="50.56842" lon="3.42108">
        <ele>57.06</ele>
        <time>2019-09-18T13:38:05.001Z</time>
      </trkpt>
      <trkpt lat="50.56728" lon="3.42192">
        <ele>55.724</ele>
        <time>2019-09-18T13:38:35.001Z</time>
      </trkpt>
      <trkpt lat="50.56489" lon="3.42261">
        <ele>44.104</ele>
        <time>2019-09-18T13:39:08.001Z</time>
      </trkpt>
      <trkpt lat="50.56213" lon="3.42339">
        <ele>31.963</ele>
        <time>2019-09-18T13:39:38.001Z</time>
      </trkpt>
      <trkpt lat="50.55943" lon="3.42553">
        <ele>25.059</ele>
        <time>2019-09-18T13:40:08.001Z</time>
      </trkpt>
      <trkpt lat="50.55718" lon="3.42775">
        <ele>18.336</ele>
        <time>2019-09-18T13:40:38.001Z</time>
      </trkpt>
      <trkpt lat="50.5554" lon="3.42924">
        <ele>17.373</ele>
        <time>2019-09-18T13:41:11.001Z</time>
      </trkpt>
      <trkpt lat="50.55556" lon="3.43146">
        <ele>14.91</ele>
        <time>2019-09-18T13:41:41.001Z</time>
      </trkpt>
      <trkpt lat="50.55463" lon="3.43243">
        <ele>13.684</ele>
        <time>2019-09-18T13:42:11.001Z</time>
      </trkpt>
      <trkpt lat="50.55342" lon="3.43277">
        <ele>14.673</ele>
        <time>2019-09-18T13:42:41.001Z</time>
      </trkpt>
      <trkpt lat="50.55196" lon="3.43353">
        <ele>13.752</ele>
        <time>2019-09-18T13:43:14.001Z</time>
      </trkpt>
      <trkpt lat="50.55064" lon="3.43471">
        <ele>15.147</ele>
        <time>2019-09-18T13:43:44.001Z</time>
      </trkpt>
      <trkpt lat="50.54944" lon="3.43551">
        <ele>15.935</ele>
        <time>2019-09-18T13:44:14.001Z</time>
      </trkpt>
      <trkpt lat="50.54801" lon="3.43613">
        <ele>14.837</ele>
        <time>2019-09-18T13:44:44.001Z</time>
      </trkpt>
      <trkpt lat="50.54647" lon="3.43637">
        <ele>15.994</ele>
        <time>2019-09-18T13:45:14.001Z</time>
      </trkpt>
      <trkpt lat="50.54507" lon="3.43621">
        <ele>15.563</ele>
        <time>2019-09-18T13:45:47.001Z</time>
      </trkpt>
      <trkpt lat="50.54373" lon="3.43566">
        <ele>14.94</ele>
        <time>2019-09-18T13:46:17.001Z</time>
      </trkpt>
      <trkpt lat="50.54272" lon="3.43516">
        <ele>11.872</ele>
        <time>2019-09-18T13:46:47.001Z</time>
      </trkpt>
      <trkpt lat="50.54193" lon="3.43435">
        <ele>11.366</ele>
        <time>2019-09-18T13:49:32.001Z</time>
      </trkpt>
      <trkpt lat="50.54082" lon="3.43344">
        <ele>14.466</ele>
        <time>2019-09-18T13:50:08.001Z</time>
      </trkpt>
      <trkpt lat="50.53937" lon="3.43227">
        <ele>10.636</ele>
        <time>2019-09-18T13:50:38.001Z</time>
      </trkpt>
      <trkpt lat="50.53796" lon="3.43116">
        <ele>14.393</ele>
        <time>2019-09-18T13:51:08.001Z</time>
      </trkpt>
      <trkpt lat="50.53643" lon="3.43008">
        <ele>13.384</ele>
        <time>2019-09-18T13:51:38.001Z</time>
      </trkpt>
      <trkpt lat="50.5351" lon="3.42954">
        <ele>12.547</ele>
        <time>2019-09-18T13:52:08.001Z</time>
      </trkpt>
      <trkpt lat="50.5334" lon="3.42925">
        <ele>14.505</ele>
        <time>2019-09-18T13:52:41.001Z</time>
      </trkpt>
      <trkpt lat="50.53201" lon="3.42937">
        <ele>15.622</ele>
        <time>2019-09-18T13:53:11.001Z</time>
      </trkpt>
      <trkpt lat="50.53222" lon="3.42935">
        <ele>17.66</ele>
        <time>2019-09-18T13:54:38.001Z</time>
      </trkpt>
      <trkpt lat="50.53341" lon="3.42923">
        <ele>20.14</ele>
        <time>2019-09-18T13:55:08.001Z</time>
      </trkpt>
      <trkpt lat="50.53484" lon="3.42946">
        <ele>20.321</ele>
        <time>2019-09-18T13:55:41.001Z</time>
      </trkpt>
      <trkpt lat="50.53602" lon="3.42989">
        <ele>12.526</ele>
        <time>2019-09-18T13:56:11.001Z</time>
      </trkpt>
      <trkpt lat="50.53677" lon="3.42893">
        <ele>14.228</ele>
        <time>2019-09-18T13:56:41.001Z</time>
      </trkpt>
      <trkpt lat="50.53637" lon="3.42854">
        <ele>17.269</ele>
        <time>2019-09-18T14:00:29.001Z</time>
      </trkpt>
      <trkpt lat="50.53624" lon="3.42717">
        <ele>14.731</ele>
        <time>2019-09-18T14:01:02.000Z</time>
      </trkpt>
      <trkpt lat="50.53632" lon="3.42624">
        <ele>19.984</ele>
        <time>2019-09-18T14:01:32.001Z</time>
      </trkpt>
      <trkpt lat="50.53563" lon="3.42604">
        <ele>27.936</ele>
        <time>2019-09-18T14:02:32.001Z</time>
      </trkpt>
      <trkpt lat="50.53441" lon="3.42598">
        <ele>27.671</ele>
        <time>2019-09-18T14:03:02.000Z</time>
      </trkpt>
      <trkpt lat="50.53306" lon="3.42582">
        <ele>27.284</ele>
        <time>2019-09-18T14:03:32.001Z</time>
      </trkpt>
      <trkpt lat="50.53168" lon="3.42561">
        <ele>27.207</ele>
        <time>2019-09-18T14:04:05.001Z</time>
      </trkpt>
      <trkpt lat="50.53052" lon="3.42506">
        <ele>29.531</ele>
        <time>2019-09-18T14:04:35.001Z</time>
      </trkpt>
      <trkpt lat="50.529" lon="3.42428">
        <ele>28.726</ele>
        <time>2019-09-18T14:05:05.001Z</time>
      </trkpt>
      <trkpt lat="50.52707" lon="3.42348">
        <ele>26.286</ele>
        <time>2019-09-18T14:05:35.001Z</time>
      </trkpt>
      <trkpt lat="50.5247" lon="3.42257">
        <ele>22.344</ele>
        <time>2019-09-18T14:06:08.001Z</time>
      </trkpt>
      <trkpt lat="50.5229" lon="3.42188">
        <ele>21.031</ele>
        <time>2019-09-18T14:06:38.001Z</time>
      </trkpt>
      <trkpt lat="50.52117" lon="3.42111">
        <ele>18.356</ele>
        <time>2019-09-18T14:07:08.001Z</time>
      </trkpt>
      <trkpt lat="50.51938" lon="3.42025">
        <ele>18.145</ele>
        <time>2019-09-18T14:07:38.001Z</time>
      </trkpt>
      <trkpt lat="50.51759" lon="3.42085">
        <ele>17.74</ele>
        <time>2019-09-18T14:08:08.001Z</time>
      </trkpt>
      <trkpt lat="50.51638" lon="3.42224">
        <ele>20.733</ele>
        <time>2019-09-18T14:08:41.001Z</time>
      </trkpt>
      <trkpt lat="50.51498" lon="3.42291">
        <ele>19.739</ele>
        <time>2019-09-18T14:09:11.001Z</time>
      </trkpt>
      <trkpt lat="50.51363" lon="3.42411">
        <ele>16.983</ele>
        <time>2019-09-18T14:09:41.001Z</time>
      </trkpt>
      <trkpt lat="50.51217" lon="3.4259">
        <ele>15.941</ele>
        <time>2019-09-18T14:10:11.001Z</time>
      </trkpt>
      <trkpt lat="50.51073" lon="3.42813">
        <ele>13.08</ele>
        <time>2019-09-18T14:10:44.001Z</time>
      </trkpt>
      <trkpt lat="50.5094" lon="3.43019">
        <ele>14.92</ele>
        <time>2019-09-18T14:11:14.001Z</time>
      </trkpt>
      <trkpt lat="50.50808" lon="3.43219">
        <ele>12.977</ele>
        <time>2019-09-18T14:11:44.001Z</time>
      </trkpt>
      <trkpt lat="50.50709" lon="3.43374">
        <ele>15.661</ele>
        <time>2019-09-18T14:12:14.001Z</time>
      </trkpt>
      <trkpt lat="50.50614" lon="3.43514">
        <ele>14.303</ele>
        <time>2019-09-18T14:12:47.001Z</time>
      </trkpt>
      <trkpt lat="50.5053" lon="3.43637">
        <ele>17.067</ele>
        <time>2019-09-18T14:13:17.001Z</time>
      </trkpt>
      <trkpt lat="50.50451" lon="3.43749">
        <ele>18.077</ele>
        <time>2019-09-18T14:13:47.001Z</time>
      </trkpt>
      <trkpt lat="50.5036" lon="3.43884">
        <ele>16.166</ele>
        <time>2019-09-18T14:14:17.001Z</time>
      </trkpt>
      <trkpt lat="50.50291" lon="3.43991">
        <ele>15.865</ele>
        <time>2019-09-18T14:14:47.001Z</time>
      </trkpt>
      <trkpt lat="50.50215" lon="3.44132">
        <ele>16.077</ele>
        <time>2019-09-18T14:15:20.001Z</time>
      </trkpt>
      <trkpt lat="50.50191" lon="3.44182">
        <ele>15.023</ele>
        <time>2019-09-18T14:17:17.001Z</time>
      </trkpt>
      <trkpt lat="50.50247" lon="3.44076">
        <ele>12.749</ele>
        <time>2019-09-18T14:17:47.001Z</time>
      </trkpt>
      <trkpt lat="50.5025" lon="3.43959">
        <ele>13.462</ele>
        <time>2019-09-18T14:18:17.001Z</time>
      </trkpt>
      <trkpt lat="50.50184" lon="3.43838">
        <ele>15.702</ele>
        <time>2019-09-18T14:18:50.001Z</time>
      </trkpt>
      <trkpt lat="50.50131" lon="3.43703">
        <ele>15.02</ele>
        <time>2019-09-18T14:19:20.001Z</time>
      </trkpt>
      <trkpt lat="50.5007" lon="3.43665">
        <ele>18.566</ele>
        <time>2019-09-18T14:19:50.001Z</time>
      </trkpt>
      <trkpt lat="50.49979" lon="3.4379">
        <ele>26.092</ele>
        <time>2019-09-18T14:20:20.001Z</time>
      </trkpt>
      <trkpt lat="50.49867" lon="3.43962">
        <ele>24.964</ele>
        <time>2019-09-18T14:20:50.001Z</time>
      </trkpt>
      <trkpt lat="50.49711" lon="3.441">
        <ele>26.129</ele>
        <time>2019-09-18T14:21:23.001Z</time>
      </trkpt>
      <trkpt lat="50.49603" lon="3.44289">
        <ele>28.022</ele>
        <time>2019-09-18T14:21:53.001Z</time>
      </trkpt>
      <trkpt lat="50.49688" lon="3.44444">
        <ele>21.859</ele>
        <time>2019-09-18T14:22:23.001Z</time>
      </trkpt>
      <trkpt lat="50.49763" lon="3.44657">
        <ele>18.14</ele>
        <time>2019-09-18T14:22:53.001Z</time>
      </trkpt>
      <trkpt lat="50.49842" lon="3.44888">
        <ele>17.227</ele>
        <time>2019-09-18T14:23:26.001Z</time>
      </trkpt>
      <trkpt lat="50.49829" lon="3.44995">
        <ele>26.878</ele>
        <time>2019-09-18T14:23:56.001Z</time>
      </trkpt>
      <trkpt lat="50.4976" lon="3.45103">
        <ele>23.938</ele>
        <time>2019-09-18T14:24:26.001Z</time>
      </trkpt>
      <trkpt lat="50.49622" lon="3.45164">
        <ele>18.895</ele>
        <time>2019-09-18T14:24:56.001Z</time>
      </trkpt>
      <trkpt lat="50.49475" lon="3.45216">
        <ele>18.653</ele>
        <time>2019-09-18T14:25:29.001Z</time>
      </trkpt>
      <trkpt lat="50.49371" lon="3.45323">
        <ele>18.704</ele>
        <time>2019-09-18T14:25:59.001Z</time>
      </trkpt>
      <trkpt lat="50.4927" lon="3.45429">
        <ele>22.485</ele>
        <time>2019-09-18T14:26:29.001Z</time>
      </trkpt>
      <trkpt lat="50.49161" lon="3.45539">
        <ele>29.648</ele>
        <time>2019-09-18T14:26:59.001Z</time>
      </trkpt>
      <trkpt lat="50.49047" lon="3.45652">
        <ele>33.987</ele>
        <time>2019-09-18T14:27:29.001Z</time>
      </trkpt>
      <trkpt lat="50.48916" lon="3.45797">
        <ele>20.955</ele>
        <time>2019-09-18T14:28:02.000Z</time>
      </trkpt>
      <trkpt lat="50.48807" lon="3.4591">
        <ele>19.903</ele>
        <time>2019-09-18T14:28:32.001Z</time>
      </trkpt>
      <trkpt lat="50.4869" lon="3.46038">
        <ele>26.779</ele>
        <time>2019-09-18T14:29:02.000Z</time>
      </trkpt>
      <trkpt lat="50.48579" lon="3.46159">
        <ele>22.058</ele>
        <time>2019-09-18T14:29:32.001Z</time>
      </trkpt>
      <trkpt lat="50.48454" lon="3.46295">
        <ele>24.089</ele>
        <time>2019-09-18T14:30:05.001Z</time>
      </trkpt>
      <trkpt lat="50.48374" lon="3.46378">
        <ele>21.235</ele>
        <time>2019-09-18T14:32:38.001Z</time>
      </trkpt>
      <trkpt lat="50.48284" lon="3.46475">
        <ele>19.654</ele>
        <time>2019-09-18T14:33:08.001Z</time>
      </trkpt>
      <trkpt lat="50.48225" lon="3.46634">
        <ele>14.767</ele>
        <time>2019-09-18T14:33:38.001Z</time>
      </trkpt>
      <trkpt lat="50.48112" lon="3.46624">
        <ele>15.216</ele>
        <time>2019-09-18T14:34:08.001Z</time>
      </trkpt>
      <trkpt lat="50.48025" lon="3.46744">
        <ele>19.9</ele>
        <time>2019-09-18T14:34:41.001Z</time>
      </trkpt>
      <trkpt lat="50.47949" lon="3.46847">
        <ele>24.013</ele>
        <time>2019-09-18T14:35:11.001Z</time>
      </trkpt>
      <trkpt lat="50.47868" lon="3.46948">
        <ele>27.552</ele>
        <time>2019-09-18T14:35:41.001Z</time>
      </trkpt>
      <trkpt lat="50.47773" lon="3.47074">
        <ele>24.134</ele>
        <time>2019-09-18T14:36:11.001Z</time>
      </trkpt>
      <trkpt lat="50.47648" lon="3.47241">
        <ele>22.339</ele>
        <time>2019-09-18T14:36:44.001Z</time>
      </trkpt>
      <trkpt lat="50.4753" lon="3.47394">
        <ele>20.866</ele>
        <time>2019-09-18T14:37:14.001Z</time>
      </trkpt>
      <trkpt lat="50.47421" lon="3.4755">
        <ele>21.342</ele>
        <time>2019-09-18T14:37:44.001Z</time>
      </trkpt>
      <trkpt lat="50.47323" lon="3.47687">
        <ele>27.251</ele>
        <time>2019-09-18T14:38:14.001Z</time>
      </trkpt>
      <trkpt lat="50.47209" lon="3.47837">
        <ele>27.837</ele>
        <time>2019-09-18T14:38:47.001Z</time>
      </trkpt>
      <trkpt lat="50.47095" lon="3.47985">
        <ele>27.398</ele>
        <time>2019-09-18T14:39:17.001Z</time>
      </trkpt>
      <trkpt lat="50.46989" lon="3.48129">
        <ele>32.399</ele>
        <time>2019-09-18T14:39:47.001Z</time>
      </trkpt>
      <trkpt lat="50.46883" lon="3.48245">
        <ele>27.846</ele>
        <time>2019-09-18T14:40:17.001Z</time>
      </trkpt>
      <trkpt lat="50.46791" lon="3.48356">
        <ele>34.829</ele>
        <time>2019-09-18T14:40:47.001Z</time>
      </trkpt>
      <trkpt lat="50.4667" lon="3.48548">
        <ele>32.865</ele>
        <time>2019-09-18T14:41:20.001Z</time>
      </trkpt>
      <trkpt lat="50.46536" lon="3.48738">
        <ele>25.182</ele>
        <time>2019-09-18T14:41:50.001Z</time>
      </trkpt>
      <trkpt lat="50.46399" lon="3.48926">
        <ele>26.044</ele>
        <time>2019-09-18T14:42:20.001Z</time>
      </trkpt>
      <trkpt lat="50.46279" lon="3.49117">
        <ele>25.193</ele>
        <time>2019-09-18T14:42:50.001Z</time>
      </trkpt>
      <trkpt lat="50.46157" lon="3.49278">
        <ele>26.4</ele>
        <time>2019-09-18T14:43:23.001Z</time>
      </trkpt>
      <trkpt lat="50.46048" lon="3.49416">
        <ele>29.788</ele>
        <time>2019-09-18T14:43:53.001Z</time>
      </trkpt>
      <trkpt lat="50.45967" lon="3.49488">
        <ele>27.844</ele>
        <time>2019-09-18T14:44:23.001Z</time>
      </trkpt>
      <trkpt lat="50.45963" lon="3.49517">
        <ele>28.527</ele>
        <time>2019-09-18T14:46:59.001Z</time>
      </trkpt>
      <trkpt lat="50.45916" lon="3.49593">
        <ele>30.057</ele>
        <time>2019-09-18T14:47:29.001Z</time>
      </trkpt>
      <trkpt lat="50.45864" lon="3.49664">
        <ele>29.915</ele>
        <time>2019-09-18T14:48:05.001Z</time>
      </trkpt>
      <trkpt lat="50.45838" lon="3.49695">
        <ele>25.346</ele>
        <time>2019-09-18T14:49:05.001Z</time>
      </trkpt>
      <trkpt lat="50.45817" lon="3.49725">
        <ele>26.549</ele>
        <time>2019-09-18T14:49:35.001Z</time>
      </trkpt>
      <trkpt lat="50.45801" lon="3.49749">
        <ele>26.291</ele>
        <time>2019-09-18T14:50:08.001Z</time>
      </trkpt>
      <trkpt lat="50.45771" lon="3.49791">
        <ele>31.333</ele>
        <time>2019-09-18T14:51:05.001Z</time>
      </trkpt>
      <trkpt lat="50.45748" lon="3.49802">
        <ele>32.229</ele>
        <time>2019-09-18T14:52:11.001Z</time>
      </trkpt>
      <trkpt lat="50.45675" lon="3.4973">
        <ele>36.3</ele>
        <time>2019-09-18T15:03:14.001Z</time>
      </trkpt>
      <trkpt lat="50.45568" lon="3.49627">
        <ele>39.857</ele>
        <time>2019-09-18T15:03:44.001Z</time>
      </trkpt>
      <trkpt lat="50.45463" lon="3.49527">
        <ele>40.879</ele>
        <time>2019-09-18T15:04:17.001Z</time>
      </trkpt>
      <trkpt lat="50.45392" lon="3.49472">
        <ele>40.135</ele>
        <time>2019-09-18T15:04:47.001Z</time>
      </trkpt>
      <trkpt lat="50.45325" lon="3.49398">
        <ele>38.196</ele>
        <time>2019-09-18T15:05:17.001Z</time>
      </trkpt>
      <trkpt lat="50.45259" lon="3.49329">
        <ele>41.524</ele>
        <time>2019-09-18T15:05:47.001Z</time>
      </trkpt>
      <trkpt lat="50.45184" lon="3.49254">
        <ele>47.782</ele>
        <time>2019-09-18T15:06:17.001Z</time>
      </trkpt>
      <trkpt lat="50.4512" lon="3.49187">
        <ele>48.275</ele>
        <time>2019-09-18T15:06:50.001Z</time>
      </trkpt>
      <trkpt lat="50.45053" lon="3.49126">
        <ele>47.906</ele>
        <time>2019-09-18T15:07:20.001Z</time>
      </trkpt>
      <trkpt lat="50.44973" lon="3.49053">
        <ele>46.095</ele>
        <time>2019-09-18T15:07:50.001Z</time>
      </trkpt>
      <trkpt lat="50.44904" lon="3.48986">
        <ele>52.507</ele>
        <time>2019-09-18T15:08:20.001Z</time>
      </trkpt>
      <trkpt lat="50.44829" lon="3.48915">
        <ele>49.923</ele>
        <time>2019-09-18T15:08:53.001Z</time>
      </trkpt>
      <trkpt lat="50.44759" lon="3.48842">
        <ele>44.085</ele>
        <time>2019-09-18T15:09:23.001Z</time>
      </trkpt>
      <trkpt lat="50.44685" lon="3.4877">
        <ele>40.381</ele>
        <time>2019-09-18T15:09:53.001Z</time>
      </trkpt>
      <trkpt lat="50.44611" lon="3.48697">
        <ele>41.053</ele>
        <time>2019-09-18T15:10:23.001Z</time>
      </trkpt>
      <trkpt lat="50.4453" lon="3.48616">
        <ele>45.042</ele>
        <time>2019-09-18T15:10:53.001Z</time>
      </trkpt>
      <trkpt lat="50.44438" lon="3.4853">
        <ele>44.581</ele>
        <time>2019-09-18T15:11:26.001Z</time>
      </trkpt>
      <trkpt lat="50.44356" lon="3.48458">
        <ele>45.348</ele>
        <time>2019-09-18T15:11:56.001Z</time>
      </trkpt>
      <trkpt lat="50.44277" lon="3.48381">
        <ele>45.243</ele>
        <time>2019-09-18T15:12:26.001Z</time>
      </trkpt>
      <trkpt lat="50.4421" lon="3.4837">
        <ele>38.736</ele>
        <time>2019-09-18T15:15:20.001Z</time>
      </trkpt>
      <trkpt lat="50.44164" lon="3.48562">
        <ele>37.367</ele>
        <time>2019-09-18T15:15:53.001Z</time>
      </trkpt>
      <trkpt lat="50.44124" lon="3.48763">
        <ele>30.715</ele>
        <time>2019-09-18T15:16:23.001Z</time>
      </trkpt>
      <trkpt lat="50.44084" lon="3.48969">
        <ele>28.327</ele>
        <time>2019-09-18T15:16:53.001Z</time>
      </trkpt>
      <trkpt lat="50.44061" lon="3.4909">
        <ele>28.573</ele>
        <time>2019-09-18T15:18:38.001Z</time>
      </trkpt>
      <trkpt lat="50.44037" lon="3.49238">
        <ele>32.373</ele>
        <time>2019-09-18T15:19:14.001Z</time>
      </trkpt>
      <trkpt lat="50.43991" lon="3.49477">
        <ele>35.285</ele>
        <time>2019-09-18T15:19:44.001Z</time>
      </trkpt>
      <trkpt lat="50.43942" lon="3.49719">
        <ele>36.102</ele>
        <time>2019-09-18T15:20:14.001Z</time>
      </trkpt>
      <trkpt lat="50.43902" lon="3.49922">
        <ele>38.753</ele>
        <time>2019-09-18T15:20:44.001Z</time>
      </trkpt>
      <trkpt lat="50.4386" lon="3.50125">
        <ele>38.962</ele>
        <time>2019-09-18T15:21:14.001Z</time>
      </trkpt>
      <trkpt lat="50.43812" lon="3.50364">
        <ele>36.54</ele>
        <time>2019-09-18T15:21:47.001Z</time>
      </trkpt>
      <trkpt lat="50.43722" lon="3.5057">
        <ele>34.283</ele>
        <time>2019-09-18T15:22:17.001Z</time>
      </trkpt>
      <trkpt lat="50.43619" lon="3.50649">
        <ele>35.974</ele>
        <time>2019-09-18T15:22:47.001Z</time>
      </trkpt>
      <trkpt lat="50.43504" lon="3.50695">
        <ele>45.394</ele>
        <time>2019-09-18T15:23:17.001Z</time>
      </trkpt>
      <trkpt lat="50.43376" lon="3.5075">
        <ele>44.969</ele>
        <time>2019-09-18T15:23:50.001Z</time>
      </trkpt>
      <trkpt lat="50.43271" lon="3.50794">
        <ele>46.693</ele>
        <time>2019-09-18T15:24:20.001Z</time>
      </trkpt>
      <trkpt lat="50.43184" lon="3.50838">
        <ele>45.147</ele>
        <time>2019-09-18T15:24:50.001Z</time>
      </trkpt>
      <trkpt lat="50.43061" lon="3.50892">
        <ele>48.324</ele>
        <time>2019-09-18T15:25:20.001Z</time>
      </trkpt>
      <trkpt lat="50.42932" lon="3.50892">
        <ele>43.228</ele>
        <time>2019-09-18T15:25:50.001Z</time>
      </trkpt>
      <trkpt lat="50.42801" lon="3.50782">
        <ele>50.945</ele>
        <time>2019-09-18T15:26:23.001Z</time>
      </trkpt>
      <trkpt lat="50.42645" lon="3.50668">
        <ele>49.448</ele>
        <time>2019-09-18T15:26:53.001Z</time>
      </trkpt>
      <trkpt lat="50.42484" lon="3.50544">
        <ele>48.096</ele>
        <time>2019-09-18T15:27:23.001Z</time>
      </trkpt>
      <trkpt lat="50.42303" lon="3.50405">
        <ele>43.338</ele>
        <time>2019-09-18T15:27:53.001Z</time>
      </trkpt>
      <trkpt lat="50.42129" lon="3.50269">
        <ele>48.773</ele>
        <time>2019-09-18T15:28:26.001Z</time>
      </trkpt>
      <trkpt lat="50.41982" lon="3.50157">
        <ele>54.185</ele>
        <time>2019-09-18T15:28:56.001Z</time>
      </trkpt>
      <trkpt lat="50.41841" lon="3.50062">
        <ele>56.442</ele>
        <time>2019-09-18T15:29:26.001Z</time>
      </trkpt>
      <trkpt lat="50.41792" lon="3.50061">
        <ele>44.9</ele>
        <time>2019-09-18T15:32:08.001Z</time>
      </trkpt>
      <trkpt lat="50.41721" lon="3.50096">
        <ele>46.723</ele>
        <time>2019-09-18T15:32:41.001Z</time>
      </trkpt>
      <trkpt lat="50.41637" lon="3.50137">
        <ele>50.179</ele>
        <time>2019-09-18T15:33:11.001Z</time>
      </trkpt>
      <trkpt lat="50.41581" lon="3.50156">
        <ele>48.639</ele>
        <time>2019-09-18T15:34:23.001Z</time>
      </trkpt>
      <trkpt lat="50.41534" lon="3.5018">
        <ele>40.844</ele>
        <time>2019-09-18T15:35:23.001Z</time>
      </trkpt>
      <trkpt lat="50.41504" lon="3.50189">
        <ele>39.35</ele>
        <time>2019-09-18T15:36:56.001Z</time>
      </trkpt>
      <trkpt lat="50.41433" lon="3.50223">
        <ele>40.674</ele>
        <time>2019-09-18T15:38:14.001Z</time>
      </trkpt>
      <trkpt lat="50.41374" lon="3.50248">
        <ele>39.664</ele>
        <time>2019-09-18T15:39:26.001Z</time>
      </trkpt>
      <trkpt lat="50.41333" lon="3.50265">
        <ele>39.906</ele>
        <time>2019-09-18T15:40:50.001Z</time>
      </trkpt>
      <trkpt lat="50.41269" lon="3.50299">
        <ele>46.114</ele>
        <time>2019-09-18T15:41:23.001Z</time>
      </trkpt>
      <trkpt lat="50.41197" lon="3.50335">
        <ele>41.926</ele>
        <time>2019-09-18T15:41:59.001Z</time>
      </trkpt>
      <trkpt lat="50.41134" lon="3.50363">
        <ele>38.608</ele>
        <time>2019-09-18T15:42:29.001Z</time>
      </trkpt>
      <trkpt lat="50.411" lon="3.50378">
        <ele>40.293</ele>
        <time>2019-09-18T15:47:23.001Z</time>
      </trkpt>
      <trkpt lat="50.41016" lon="3.50314">
        <ele>40.953</ele>
        <time>2019-09-18T15:52:23.001Z</time>
      </trkpt>
      <trkpt lat="50.40961" lon="3.50357">
        <ele>48.026</ele>
        <time>2019-09-18T15:52:53.001Z</time>
      </trkpt>
      <trkpt lat="50.40904" lon="3.50413">
        <ele>52.253</ele>
        <time>2019-09-18T15:53:26.001Z</time>
      </trkpt>
      <trkpt lat="50.40853" lon="3.50472">
        <ele>52.718</ele>
        <time>2019-09-18T15:53:56.001Z</time>
      </trkpt>
      <trkpt lat="50.40782" lon="3.50465">
        <ele>39.956</ele>
        <time>2019-09-18T15:54:29.001Z</time>
      </trkpt>
      <trkpt lat="50.40724" lon="3.50543">
        <ele>30.534</ele>
        <time>2019-09-18T15:54:59.001Z</time>
      </trkpt>
      <trkpt lat="50.40616" lon="3.50594">
        <ele>23.366</ele>
        <time>2019-09-18T15:55:32.001Z</time>
      </trkpt>
      <trkpt lat="50.40496" lon="3.50649">
        <ele>22.009</ele>
        <time>2019-09-18T15:56:02.000Z</time>
      </trkpt>
      <trkpt lat="50.40433" lon="3.50677">
        <ele>22.536</ele>
        <time>2019-09-18T15:57:11.001Z</time>
      </trkpt>
      <trkpt lat="50.40393" lon="3.50851">
        <ele>20.98</ele>
        <time>2019-09-18T15:57:41.001Z</time>
      </trkpt>
      <trkpt lat="50.40282" lon="3.51006">
        <ele>27.063</ele>
        <time>2019-09-18T15:58:14.001Z</time>
      </trkpt>
      <trkpt lat="50.40168" lon="3.51154">
        <ele>30.178</ele>
        <time>2019-09-18T15:58:44.001Z</time>
      </trkpt>
      <trkpt lat="50.40102" lon="3.51356">
        <ele>25.406</ele>
        <time>2019-09-18T15:59:14.001Z</time>
      </trkpt>
      <trkpt lat="50.4005" lon="3.51543">
        <ele>21.61</ele>
        <time>2019-09-18T15:59:44.001Z</time>
      </trkpt>
      <trkpt lat="50.39978" lon="3.51731">
        <ele>25.783</ele>
        <time>2019-09-18T16:00:14.001Z</time>
      </trkpt>
      <trkpt lat="50.39901" lon="3.51926">
        <ele>24.475</ele>
        <time>2019-09-18T16:00:47.001Z</time>
      </trkpt>
      <trkpt lat="50.39926" lon="3.52112">
        <ele>22.525</ele>
        <time>2019-09-18T16:01:17.001Z</time>
      </trkpt>
      <trkpt lat="50.3994" lon="3.52308">
        <ele>17.877</ele>
        <time>2019-09-18T16:01:47.001Z</time>
      </trkpt>
      <trkpt lat="50.39927" lon="3.52476">
        <ele>24.091</ele>
        <time>2019-09-18T16:02:17.001Z</time>
      </trkpt>
      <trkpt lat="50.39873" lon="3.52686">
        <ele>28.131</ele>
        <time>2019-09-18T16:02:50.001Z</time>
      </trkpt>
      <trkpt lat="50.39755" lon="3.52815">
        <ele>30.993</ele>
        <time>2019-09-18T16:03:20.001Z</time>
      </trkpt>
      <trkpt lat="50.39627" lon="3.52942">
        <ele>28.307</ele>
        <time>2019-09-18T16:03:50.001Z</time>
      </trkpt>
      <trkpt lat="50.39489" lon="3.52832">
        <ele>25.965</ele>
        <time>2019-09-18T16:04:20.001Z</time>
      </trkpt>
      <trkpt lat="50.39362" lon="3.52734">
        <ele>28.862</ele>
        <time>2019-09-18T16:04:50.001Z</time>
      </trkpt>
      <trkpt lat="50.39282" lon="3.52634">
        <ele>19.889</ele>
        <time>2019-09-18T16:05:23.001Z</time>
      </trkpt>
      <trkpt lat="50.39139" lon="3.52571">
        <ele>20.35</ele>
        <time>2019-09-18T16:05:53.001Z</time>
      </trkpt>
      <trkpt lat="50.39094" lon="3.5252">
        <ele>16.651</ele>
        <time>2019-09-18T16:06:23.001Z</time>
      </trkpt>
      <trkpt lat="50.38932" lon="3.52449">
        <ele>15.876</ele>
        <time>2019-09-18T16:06:53.001Z</time>
      </trkpt>
      <trkpt lat="50.38748" lon="3.52365">
        <ele>12.447</ele>
        <time>2019-09-18T16:07:26.001Z</time>
      </trkpt>
      <trkpt lat="50.38626" lon="3.52285">
        <ele>16.356</ele>
        <time>2019-09-18T16:07:56.001Z</time>
      </trkpt>
      <trkpt lat="50.38515" lon="3.52234">
        <ele>22.428</ele>
        <time>2019-09-18T16:08:26.001Z</time>
      </trkpt>
      <trkpt lat="50.38456" lon="3.52388">
        <ele>30.026</ele>
        <time>2019-09-18T16:08:56.001Z</time>
      </trkpt>
      <trkpt lat="50.38318" lon="3.52313">
        <ele>26.306</ele>
        <time>2019-09-18T16:09:29.001Z</time>
      </trkpt>
      <trkpt lat="50.3821" lon="3.52353">
        <ele>26.723</ele>
        <time>2019-09-18T16:09:59.001Z</time>
      </trkpt>
      <trkpt lat="50.3811" lon="3.52302">
        <ele>25.558</ele>
        <time>2019-09-18T16:10:29.001Z</time>
      </trkpt>
      <trkpt lat="50.3805" lon="3.52167">
        <ele>31.617</ele>
        <time>2019-09-18T16:10:59.001Z</time>
      </trkpt>
      <trkpt lat="50.37937" lon="3.52015">
        <ele>30.772</ele>
        <time>2019-09-18T16:11:29.001Z</time>
      </trkpt>
      <trkpt lat="50.37816" lon="3.51914">
        <ele>37.316</ele>
        <time>2019-09-18T16:12:02.000Z</time>
      </trkpt>
      <trkpt lat="50.37686" lon="3.51825">
        <ele>37.63</ele>
        <time>2019-09-18T16:12:32.001Z</time>
      </trkpt>
      <trkpt lat="50.37574" lon="3.51737">
        <ele>43.069</ele>
        <time>2019-09-18T16:13:02.000Z</time>
      </trkpt>
      <trkpt lat="50.3749" lon="3.51672">
        <ele>45.84</ele>
        <time>2019-09-18T16:13:32.001Z</time>
      </trkpt>
      <trkpt lat="50.37336" lon="3.51556">
        <ele>38.723</ele>
        <time>2019-09-18T16:14:05.001Z</time>
      </trkpt>
      <trkpt lat="50.37212" lon="3.51458">
        <ele>37.395</ele>
        <time>2019-09-18T16:14:35.001Z</time>
      </trkpt>
      <trkpt lat="50.37081" lon="3.51366">
        <ele>47.184</ele>
        <time>2019-09-18T16:15:05.001Z</time>
      </trkpt>
      <trkpt lat="50.36966" lon="3.51274">
        <ele>48.937</ele>
        <time>2019-09-18T16:15:35.001Z</time>
      </trkpt>
      <trkpt lat="50.368" lon="3.51156">
        <ele>46.28</ele>
        <time>2019-09-18T16:16:05.001Z</time>
      </trkpt>
      <trkpt lat="50.36678" lon="3.51068">
        <ele>53.072</ele>
        <time>2019-09-18T16:16:38.001Z</time>
      </trkpt>
      <trkpt lat="50.36539" lon="3.50983">
        <ele>47.335</ele>
        <time>2019-09-18T16:17:08.001Z</time>
      </trkpt>
      <trkpt lat="50.36408" lon="3.50904">
        <ele>51.017</ele>
        <time>2019-09-18T16:17:38.001Z</time>
      </trkpt>
      <trkpt lat="50.36286" lon="3.5082">
        <ele>50.5</ele>
        <time>2019-09-18T16:18:08.001Z</time>
      </trkpt>
      <trkpt lat="50.36151" lon="3.50736">
        <ele>56.039</ele>
        <time>2019-09-18T16:18:41.001Z</time>
      </trkpt>
      <trkpt lat="50.36038" lon="3.5067">
        <ele>55.216</ele>
        <time>2019-09-18T16:19:11.001Z</time>
      </trkpt>
      <trkpt lat="50.35907" lon="3.50583">
        <ele>54.526</ele>
        <time>2019-09-18T16:19:41.001Z</time>
      </trkpt>
      <trkpt lat="50.35763" lon="3.50502">
        <ele>54.49</ele>
        <time>2019-09-18T16:20:11.001Z</time>
      </trkpt>
      <trkpt lat="50.35678" lon="3.50443">
        <ele>56.491</ele>
        <time>2019-09-18T16:20:44.001Z</time>
      </trkpt>
      <trkpt lat="50.35571" lon="3.50633">
        <ele>50.65</ele>
        <time>2019-09-18T16:21:14.001Z</time>
      </trkpt>
      <trkpt lat="50.35464" lon="3.50538">
        <ele>42.758</ele>
        <time>2019-09-18T16:21:44.001Z</time>
      </trkpt>
      <trkpt lat="50.35383" lon="3.50416">
        <ele>46.435</ele>
        <time>2019-09-18T16:22:14.001Z</time>
      </trkpt>
      <trkpt lat="50.3536" lon="3.50344">
        <ele>54.093</ele>
        <time>2019-09-18T16:23:02.000Z</time>
      </trkpt>
      <trkpt lat="50.35377" lon="3.50398">
        <ele>60.211</ele>
        <time>2019-09-18T16:24:11.001Z</time>
      </trkpt>
      <trkpt lat="50.35364" lon="3.50419">
        <ele>52.838</ele>
        <time>2019-09-18T16:24:59.001Z</time>
      </trkpt>
    </trkseg>
  </trk>
</gpx>